sensor_id;sensor_type;location;lat;lon;timestamp;P1;durP1;ratioP1;P2;durP2;ratioP2
19291;SDS011;9779;51.756;7.450;2023-08-07T00:01:51;1.03;;;0.50;;
19291;SDS011;9779;51.756;7.450;2023-08-07T00:04:16;0.40;;;0.40;;
19291;SDS011;9779;51.756;7.450;2023-08-07T00:06:42;0.50;;;0.50;;
19291;SDS011;9779;51.756;7.450;2023-08-07T00:09:08;0.40;;;0.40;;
19291;SDS011;9779;51.756;7.450;2023-08-07T00:11:33;0.53;;;0.53;;
19291;SDS011;9779;51.756;7.450;2023-08-07T00:13:59;0.60;;;0.60;;
19291;SDS011;9779;51.756;7.450;2023-08-07T00:16:25;0.47;;;0.47;;
19291;SDS011;9779;51.756;7.450;2023-08-07T00:18:51;1.17;;;0.60;;
19291;SDS011;9779;51.756;7.450;2023-08-07T00:21:20;0.83;;;0.50;;
19291;SDS011;9779;51.756;7.450;2023-08-07T00:23:47;0.67;;;0.60;;
19291;SDS011;9779;51.756;7.450;2023-08-07T00:26:13;1.77;;;0.70;;
19291;SDS011;9779;51.756;7.450;2023-08-07T00:28:38;0.57;;;0.57;;
19291;SDS011;9779;51.756;7.450;2023-08-07T00:31:06;0.50;;;0.50;;
19291;SDS011;9779;51.756;7.450;2023-08-07T00:33:32;0.57;;;0.50;;
19291;SDS011;9779;51.756;7.450;2023-08-07T00:35:58;0.93;;;0.70;;
19291;SDS011;9779;51.756;7.450;2023-08-07T00:38:23;0.77;;;0.50;;
19291;SDS011;9779;51.756;7.450;2023-08-07T00:40:49;0.57;;;0.50;;
19291;SDS011;9779;51.756;7.450;2023-08-07T00:43:14;0.60;;;0.40;;
19291;SDS011;9779;51.756;7.450;2023-08-07T00:45:41;0.43;;;0.40;;
19291;SDS011;9779;51.756;7.450;2023-08-07T00:48:08;0.97;;;0.60;;
19291;SDS011;9779;51.756;7.450;2023-08-07T00:50:34;1.43;;;0.40;;
19291;SDS011;9779;51.756;7.450;2023-08-07T00:53:01;0.30;;;0.30;;
19291;SDS011;9779;51.756;7.450;2023-08-07T00:55:26;1.40;;;0.40;;
19291;SDS011;9779;51.756;7.450;2023-08-07T00:57:53;1.10;;;0.40;;
19291;SDS011;9779;51.756;7.450;2023-08-07T01:00:19;0.73;;;0.50;;
19291;SDS011;9779;51.756;7.450;2023-08-07T01:02:45;0.50;;;0.37;;
19291;SDS011;9779;51.756;7.450;2023-08-07T01:05:14;1.00;;;0.40;;
19291;SDS011;9779;51.756;7.450;2023-08-07T01:07:39;0.23;;;0.20;;
19291;SDS011;9779;51.756;7.450;2023-08-07T01:10:08;6.00;;;0.50;;
19291;SDS011;9779;51.756;7.450;2023-08-07T01:12:36;0.40;;;0.30;;
19291;SDS011;9779;51.756;7.450;2023-08-07T01:15:14;0.60;;;0.40;;
19291;SDS011;9779;51.756;7.450;2023-08-07T01:17:44;0.80;;;0.50;;
19291;SDS011;9779;51.756;7.450;2023-08-07T01:20:11;0.73;;;0.57;;
19291;SDS011;9779;51.756;7.450;2023-08-07T01:22:36;3.60;;;0.60;;
19291;SDS011;9779;51.756;7.450;2023-08-07T01:25:02;1.67;;;0.50;;
19291;SDS011;9779;51.756;7.450;2023-08-07T01:30:30;4.03;;;0.67;;
19291;SDS011;9779;51.756;7.450;2023-08-07T01:33:25;1.23;;;0.60;;
19291;SDS011;9779;51.756;7.450;2023-08-07T01:35:57;0.97;;;0.77;;
19291;SDS011;9779;51.756;7.450;2023-08-07T01:38:25;6.23;;;0.70;;
19291;SDS011;9779;51.756;7.450;2023-08-07T01:40:53;1.93;;;0.60;;
19291;SDS011;9779;51.756;7.450;2023-08-07T01:43:19;2.80;;;0.70;;
19291;SDS011;9779;51.756;7.450;2023-08-07T01:45:46;3.43;;;0.60;;
19291;SDS011;9779;51.756;7.450;2023-08-07T01:48:11;1.43;;;0.60;;
19291;SDS011;9779;51.756;7.450;2023-08-07T01:50:38;1.53;;;0.53;;
19291;SDS011;9779;51.756;7.450;2023-08-07T01:53:04;0.50;;;0.50;;
19291;SDS011;9779;51.756;7.450;2023-08-07T01:55:30;1.43;;;0.93;;
19291;SDS011;9779;51.756;7.450;2023-08-07T01:57:55;2.53;;;0.77;;
19291;SDS011;9779;51.756;7.450;2023-08-07T02:00:21;2.63;;;0.50;;
19291;SDS011;9779;51.756;7.450;2023-08-07T02:02:47;0.77;;;0.40;;
19291;SDS011;9779;51.756;7.450;2023-08-07T02:05:13;1.37;;;0.57;;
19291;SDS011;9779;51.756;7.450;2023-08-07T02:07:39;0.60;;;0.47;;
19291;SDS011;9779;51.756;7.450;2023-08-07T02:10:05;1.73;;;0.57;;
19291;SDS011;9779;51.756;7.450;2023-08-07T02:12:31;1.60;;;0.60;;
19291;SDS011;9779;51.756;7.450;2023-08-07T02:14:57;0.40;;;0.40;;
19291;SDS011;9779;51.756;7.450;2023-08-07T02:17:24;0.53;;;0.53;;
19291;SDS011;9779;51.756;7.450;2023-08-07T02:19:54;1.00;;;0.60;;
19291;SDS011;9779;51.756;7.450;2023-08-07T02:22:20;1.90;;;0.60;;
19291;SDS011;9779;51.756;7.450;2023-08-07T02:24:46;1.00;;;0.60;;
19291;SDS011;9779;51.756;7.450;2023-08-07T02:27:12;8.13;;;0.70;;
19291;SDS011;9779;51.756;7.450;2023-08-07T02:29:38;3.40;;;0.70;;
19291;SDS011;9779;51.756;7.450;2023-08-07T02:32:03;4.60;;;0.70;;
19291;SDS011;9779;51.756;7.450;2023-08-07T02:34:30;0.70;;;0.70;;
19291;SDS011;9779;51.756;7.450;2023-08-07T02:36:56;0.63;;;0.50;;
19291;SDS011;9779;51.756;7.450;2023-08-07T02:39:22;1.43;;;0.80;;
19291;SDS011;9779;51.756;7.450;2023-08-07T02:41:47;0.97;;;0.60;;
19291;SDS011;9779;51.756;7.450;2023-08-07T02:44:13;0.73;;;0.60;;
19291;SDS011;9779;51.756;7.450;2023-08-07T02:46:39;0.57;;;0.57;;
19291;SDS011;9779;51.756;7.450;2023-08-07T02:49:05;0.67;;;0.50;;
19291;SDS011;9779;51.756;7.450;2023-08-07T02:51:30;3.37;;;0.70;;
19291;SDS011;9779;51.756;7.450;2023-08-07T02:53:57;1.80;;;0.70;;
19291;SDS011;9779;51.756;7.450;2023-08-07T02:56:23;1.00;;;0.60;;
19291;SDS011;9779;51.756;7.450;2023-08-07T02:58:48;0.50;;;0.50;;
19291;SDS011;9779;51.756;7.450;2023-08-07T03:01:14;1.00;;;0.60;;
19291;SDS011;9779;51.756;7.450;2023-08-07T03:03:39;1.80;;;0.57;;
19291;SDS011;9779;51.756;7.450;2023-08-07T03:06:05;1.67;;;0.80;;
19291;SDS011;9779;51.756;7.450;2023-08-07T03:08:31;0.87;;;0.80;;
19291;SDS011;9779;51.756;7.450;2023-08-07T03:10:57;2.63;;;0.77;;
19291;SDS011;9779;51.756;7.450;2023-08-07T03:13:23;1.27;;;0.80;;
19291;SDS011;9779;51.756;7.450;2023-08-07T03:15:50;0.67;;;0.60;;
19291;SDS011;9779;51.756;7.450;2023-08-07T03:18:23;0.60;;;0.50;;
19291;SDS011;9779;51.756;7.450;2023-08-07T03:20:49;3.13;;;0.53;;
19291;SDS011;9779;51.756;7.450;2023-08-07T03:23:14;3.17;;;0.50;;
19291;SDS011;9779;51.756;7.450;2023-08-07T03:25:40;1.13;;;0.40;;
19291;SDS011;9779;51.756;7.450;2023-08-07T03:28:05;0.47;;;0.40;;
19291;SDS011;9779;51.756;7.450;2023-08-07T03:30:31;0.87;;;0.53;;
19291;SDS011;9779;51.756;7.450;2023-08-07T03:32:59;1.00;;;0.60;;
19291;SDS011;9779;51.756;7.450;2023-08-07T03:35:24;0.80;;;0.80;;
19291;SDS011;9779;51.756;7.450;2023-08-07T03:37:52;1.90;;;0.60;;
19291;SDS011;9779;51.756;7.450;2023-08-07T03:40:18;0.50;;;0.50;;
19291;SDS011;9779;51.756;7.450;2023-08-07T03:42:44;0.40;;;0.40;;
19291;SDS011;9779;51.756;7.450;2023-08-07T03:45:09;0.70;;;0.60;;
19291;SDS011;9779;51.756;7.450;2023-08-07T03:47:35;0.40;;;0.40;;
19291;SDS011;9779;51.756;7.450;2023-08-07T03:50:01;0.50;;;0.40;;
19291;SDS011;9779;51.756;7.450;2023-08-07T03:52:26;0.40;;;0.40;;
19291;SDS011;9779;51.756;7.450;2023-08-07T03:54:52;0.53;;;0.53;;
19291;SDS011;9779;51.756;7.450;2023-08-07T03:57:18;3.43;;;0.60;;
19291;SDS011;9779;51.756;7.450;2023-08-07T03:59:43;2.37;;;0.70;;
19291;SDS011;9779;51.756;7.450;2023-08-07T04:02:09;1.00;;;0.70;;
19291;SDS011;9779;51.756;7.450;2023-08-07T04:04:34;1.43;;;0.70;;
19291;SDS011;9779;51.756;7.450;2023-08-07T04:07:00;7.37;;;0.80;;
19291;SDS011;9779;51.756;7.450;2023-08-07T04:09:28;2.03;;;0.70;;
19291;SDS011;9779;51.756;7.450;2023-08-07T04:11:54;3.63;;;0.60;;
19291;SDS011;9779;51.756;7.450;2023-08-07T04:14:19;1.23;;;0.80;;
19291;SDS011;9779;51.756;7.450;2023-08-07T04:16:45;0.93;;;0.70;;
19291;SDS011;9779;51.756;7.450;2023-08-07T04:19:11;2.20;;;1.03;;
19291;SDS011;9779;51.756;7.450;2023-08-07T04:21:36;1.60;;;1.07;;
19291;SDS011;9779;51.756;7.450;2023-08-07T04:24:02;1.57;;;0.90;;
19291;SDS011;9779;51.756;7.450;2023-08-07T04:26:35;0.90;;;0.70;;
19291;SDS011;9779;51.756;7.450;2023-08-07T04:29:02;3.77;;;0.90;;
19291;SDS011;9779;51.756;7.450;2023-08-07T04:31:28;2.07;;;1.10;;
19291;SDS011;9779;51.756;7.450;2023-08-07T04:33:56;2.30;;;0.97;;
19291;SDS011;9779;51.756;7.450;2023-08-07T04:36:22;2.40;;;1.30;;
19291;SDS011;9779;51.756;7.450;2023-08-07T04:38:47;3.07;;;1.30;;
19291;SDS011;9779;51.756;7.450;2023-08-07T04:41:13;2.17;;;1.20;;
19291;SDS011;9779;51.756;7.450;2023-08-07T04:43:39;2.13;;;1.20;;
19291;SDS011;9779;51.756;7.450;2023-08-07T04:46:04;1.40;;;1.07;;
19291;SDS011;9779;51.756;7.450;2023-08-07T04:48:30;2.37;;;1.10;;
19291;SDS011;9779;51.756;7.450;2023-08-07T04:50:56;2.43;;;1.10;;
19291;SDS011;9779;51.756;7.450;2023-08-07T04:53:22;1.53;;;1.10;;
19291;SDS011;9779;51.756;7.450;2023-08-07T04:55:48;1.30;;;1.20;;
19291;SDS011;9779;51.756;7.450;2023-08-07T04:58:14;1.93;;;1.30;;
19291;SDS011;9779;51.756;7.450;2023-08-07T05:00:39;1.87;;;1.27;;
19291;SDS011;9779;51.756;7.450;2023-08-07T05:03:05;2.47;;;1.10;;
19291;SDS011;9779;51.756;7.450;2023-08-07T05:05:30;3.57;;;1.50;;
19291;SDS011;9779;51.756;7.450;2023-08-07T05:07:57;5.53;;;1.70;;
19291;SDS011;9779;51.756;7.450;2023-08-07T05:10:24;3.17;;;1.23;;
19291;SDS011;9779;51.756;7.450;2023-08-07T05:12:49;2.77;;;1.33;;
19291;SDS011;9779;51.756;7.450;2023-08-07T05:15:20;6.40;;;1.50;;
19291;SDS011;9779;51.756;7.450;2023-08-07T05:17:49;2.13;;;1.13;;
19291;SDS011;9779;51.756;7.450;2023-08-07T05:20:16;8.10;;;1.50;;
19291;SDS011;9779;51.756;7.450;2023-08-07T05:22:42;1.40;;;1.30;;
19291;SDS011;9779;51.756;7.450;2023-08-07T05:25:08;2.20;;;1.50;;
19291;SDS011;9779;51.756;7.450;2023-08-07T05:27:34;3.53;;;1.30;;
19291;SDS011;9779;51.756;7.450;2023-08-07T05:30:00;2.17;;;1.10;;
19291;SDS011;9779;51.756;7.450;2023-08-07T05:32:26;6.07;;;1.57;;
19291;SDS011;9779;51.756;7.450;2023-08-07T05:34:53;2.47;;;1.23;;
19291;SDS011;9779;51.756;7.450;2023-08-07T05:37:18;1.60;;;1.10;;
19291;SDS011;9779;51.756;7.450;2023-08-07T05:39:44;1.47;;;1.00;;
19291;SDS011;9779;51.756;7.450;2023-08-07T05:42:10;2.80;;;0.93;;
19291;SDS011;9779;51.756;7.450;2023-08-07T05:44:37;1.20;;;0.90;;
19291;SDS011;9779;51.756;7.450;2023-08-07T05:47:02;1.83;;;1.00;;
19291;SDS011;9779;51.756;7.450;2023-08-07T05:49:28;3.00;;;1.70;;
19291;SDS011;9779;51.756;7.450;2023-08-07T05:51:54;2.27;;;0.80;;
19291;SDS011;9779;51.756;7.450;2023-08-07T05:54:19;5.43;;;1.27;;
19291;SDS011;9779;51.756;7.450;2023-08-07T05:56:45;3.30;;;1.00;;
19291;SDS011;9779;51.756;7.450;2023-08-07T05:59:11;1.53;;;0.97;;
19291;SDS011;9779;51.756;7.450;2023-08-07T06:01:36;2.57;;;1.10;;
19291;SDS011;9779;51.756;7.450;2023-08-07T06:04:02;1.10;;;1.00;;
19291;SDS011;9779;51.756;7.450;2023-08-07T06:06:28;1.37;;;0.87;;
19291;SDS011;9779;51.756;7.450;2023-08-07T06:08:54;2.97;;;1.43;;
19291;SDS011;9779;51.756;7.450;2023-08-07T06:11:20;1.80;;;0.90;;
19291;SDS011;9779;51.756;7.450;2023-08-07T06:13:46;1.00;;;0.90;;
19291;SDS011;9779;51.756;7.450;2023-08-07T06:16:13;1.20;;;0.90;;
19291;SDS011;9779;51.756;7.450;2023-08-07T06:18:39;2.40;;;1.30;;
19291;SDS011;9779;51.756;7.450;2023-08-07T06:21:04;2.30;;;1.63;;
19291;SDS011;9779;51.756;7.450;2023-08-07T06:23:32;1.00;;;0.90;;
19291;SDS011;9779;51.756;7.450;2023-08-07T06:25:58;1.27;;;0.80;;
19291;SDS011;9779;51.756;7.450;2023-08-07T06:28:23;2.53;;;0.97;;
19291;SDS011;9779;51.756;7.450;2023-08-07T06:30:49;1.73;;;1.33;;
19291;SDS011;9779;51.756;7.450;2023-08-07T06:33:15;1.27;;;1.13;;
19291;SDS011;9779;51.756;7.450;2023-08-07T06:35:40;6.10;;;1.43;;
19291;SDS011;9779;51.756;7.450;2023-08-07T06:38:07;1.97;;;1.87;;
19291;SDS011;9779;51.756;7.450;2023-08-07T06:40:37;1.00;;;0.90;;
19291;SDS011;9779;51.756;7.450;2023-08-07T06:43:03;1.40;;;1.20;;
19291;SDS011;9779;51.756;7.450;2023-08-07T06:45:28;1.67;;;1.20;;
19291;SDS011;9779;51.756;7.450;2023-08-07T06:47:54;2.13;;;0.97;;
19291;SDS011;9779;51.756;7.450;2023-08-07T06:50:20;3.47;;;0.97;;
19291;SDS011;9779;51.756;7.450;2023-08-07T06:52:46;2.23;;;1.03;;
19291;SDS011;9779;51.756;7.450;2023-08-07T06:55:12;1.90;;;1.47;;
19291;SDS011;9779;51.756;7.450;2023-08-07T06:57:37;3.70;;;1.23;;
19291;SDS011;9779;51.756;7.450;2023-08-07T07:00:03;1.80;;;1.30;;
19291;SDS011;9779;51.756;7.450;2023-08-07T07:02:30;2.17;;;1.37;;
19291;SDS011;9779;51.756;7.450;2023-08-07T07:04:55;3.73;;;1.70;;
19291;SDS011;9779;51.756;7.450;2023-08-07T07:07:21;3.97;;;1.50;;
19291;SDS011;9779;51.756;7.450;2023-08-07T07:09:47;2.33;;;1.33;;
19291;SDS011;9779;51.756;7.450;2023-08-07T07:12:12;2.53;;;1.60;;
19291;SDS011;9779;51.756;7.450;2023-08-07T07:14:38;1.67;;;1.23;;
19291;SDS011;9779;51.756;7.450;2023-08-07T07:17:03;2.23;;;1.13;;
19291;SDS011;9779;51.756;7.450;2023-08-07T07:19:29;1.50;;;1.13;;
19291;SDS011;9779;51.756;7.450;2023-08-07T07:21:55;2.40;;;1.33;;
19291;SDS011;9779;51.756;7.450;2023-08-07T07:24:20;4.17;;;1.70;;
19291;SDS011;9779;51.756;7.450;2023-08-07T07:26:46;2.83;;;1.50;;
19291;SDS011;9779;51.756;7.450;2023-08-07T07:29:11;3.63;;;1.40;;
19291;SDS011;9779;51.756;7.450;2023-08-07T07:31:37;3.83;;;1.50;;
19291;SDS011;9779;51.756;7.450;2023-08-07T07:34:03;1.20;;;1.00;;
19291;SDS011;9779;51.756;7.450;2023-08-07T07:36:28;3.10;;;1.27;;
19291;SDS011;9779;51.756;7.450;2023-08-07T07:38:54;2.13;;;1.10;;
19291;SDS011;9779;51.756;7.450;2023-08-07T07:41:21;1.10;;;0.87;;
19291;SDS011;9779;51.756;7.450;2023-08-07T07:43:48;6.80;;;1.00;;
19291;SDS011;9779;51.756;7.450;2023-08-07T07:46:13;1.80;;;0.70;;
19291;SDS011;9779;51.756;7.450;2023-08-07T07:48:39;1.17;;;0.80;;
19291;SDS011;9779;51.756;7.450;2023-08-07T07:51:05;0.60;;;0.50;;
19291;SDS011;9779;51.756;7.450;2023-08-07T07:53:30;1.73;;;1.20;;
19291;SDS011;9779;51.756;7.450;2023-08-07T07:55:59;2.77;;;0.87;;
19291;SDS011;9779;51.756;7.450;2023-08-07T07:58:24;3.30;;;0.70;;
19291;SDS011;9779;51.756;7.450;2023-08-07T08:00:50;2.07;;;1.10;;
19291;SDS011;9779;51.756;7.450;2023-08-07T08:03:19;1.47;;;0.90;;
19291;SDS011;9779;51.756;7.450;2023-08-07T08:05:48;1.43;;;0.70;;
19291;SDS011;9779;51.756;7.450;2023-08-07T08:08:17;2.30;;;1.00;;
19291;SDS011;9779;51.756;7.450;2023-08-07T08:10:44;1.53;;;1.03;;
19291;SDS011;9779;51.756;7.450;2023-08-07T08:13:12;1.77;;;1.13;;
19291;SDS011;9779;51.756;7.450;2023-08-07T08:15:37;4.87;;;0.90;;
19291;SDS011;9779;51.756;7.450;2023-08-07T08:18:03;1.87;;;1.10;;
19291;SDS011;9779;51.756;7.450;2023-08-07T08:20:29;1.37;;;0.90;;
19291;SDS011;9779;51.756;7.450;2023-08-07T08:22:56;1.77;;;1.20;;
19291;SDS011;9779;51.756;7.450;2023-08-07T08:25:22;5.40;;;1.13;;
19291;SDS011;9779;51.756;7.450;2023-08-07T08:27:47;2.67;;;1.50;;
19291;SDS011;9779;51.756;7.450;2023-08-07T08:30:14;2.83;;;1.47;;
19291;SDS011;9779;51.756;7.450;2023-08-07T08:32:40;2.90;;;1.80;;
19291;SDS011;9779;51.756;7.450;2023-08-07T08:35:06;3.70;;;1.67;;
19291;SDS011;9779;51.756;7.450;2023-08-07T08:37:32;5.27;;;1.73;;
19291;SDS011;9779;51.756;7.450;2023-08-07T08:39:57;2.53;;;1.53;;
19291;SDS011;9779;51.756;7.450;2023-08-07T08:42:23;9.47;;;1.80;;
19291;SDS011;9779;51.756;7.450;2023-08-07T08:44:52;4.33;;;1.67;;
19291;SDS011;9779;51.756;7.450;2023-08-07T08:47:24;3.60;;;1.40;;
19291;SDS011;9779;51.756;7.450;2023-08-07T08:49:54;11.73;;;2.27;;
19291;SDS011;9779;51.756;7.450;2023-08-07T08:52:28;7.33;;;2.17;;
19291;SDS011;9779;51.756;7.450;2023-08-07T08:54:55;4.40;;;2.13;;
19291;SDS011;9779;51.756;7.450;2023-08-07T08:57:22;8.33;;;2.13;;
19291;SDS011;9779;51.756;7.450;2023-08-07T08:59:49;4.60;;;2.13;;
19291;SDS011;9779;51.756;7.450;2023-08-07T09:02:15;4.33;;;2.30;;
19291;SDS011;9779;51.756;7.450;2023-08-07T09:04:42;7.40;;;2.20;;
19291;SDS011;9779;51.756;7.450;2023-08-07T09:07:09;5.70;;;1.90;;
19291;SDS011;9779;51.756;7.450;2023-08-07T09:09:37;4.83;;;1.73;;
19291;SDS011;9779;51.756;7.450;2023-08-07T09:12:04;5.90;;;1.80;;
19291;SDS011;9779;51.756;7.450;2023-08-07T09:14:30;6.00;;;2.13;;
19291;SDS011;9779;51.756;7.450;2023-08-07T09:17:01;3.83;;;1.70;;
19291;SDS011;9779;51.756;7.450;2023-08-07T09:19:28;5.67;;;1.47;;
19291;SDS011;9779;51.756;7.450;2023-08-07T09:21:53;5.00;;;1.70;;
19291;SDS011;9779;51.756;7.450;2023-08-07T09:24:19;6.97;;;1.90;;
19291;SDS011;9779;51.756;7.450;2023-08-07T09:26:47;4.57;;;1.80;;
19291;SDS011;9779;51.756;7.450;2023-08-07T09:29:15;3.63;;;1.70;;
19291;SDS011;9779;51.756;7.450;2023-08-07T09:31:42;7.97;;;1.70;;
19291;SDS011;9779;51.756;7.450;2023-08-07T09:34:10;4.67;;;1.63;;
19291;SDS011;9779;51.756;7.450;2023-08-07T09:36:38;5.43;;;1.87;;
19291;SDS011;9779;51.756;7.450;2023-08-07T09:39:05;6.80;;;2.57;;
19291;SDS011;9779;51.756;7.450;2023-08-07T09:41:31;7.27;;;2.00;;
19291;SDS011;9779;51.756;7.450;2023-08-07T09:43:57;5.57;;;1.87;;
19291;SDS011;9779;51.756;7.450;2023-08-07T09:46:24;7.03;;;2.23;;
19291;SDS011;9779;51.756;7.450;2023-08-07T09:48:51;8.33;;;2.47;;
19291;SDS011;9779;51.756;7.450;2023-08-07T09:51:16;3.90;;;2.20;;
19291;SDS011;9779;51.756;7.450;2023-08-07T09:53:42;11.57;;;2.33;;
19291;SDS011;9779;51.756;7.450;2023-08-07T09:56:08;4.73;;;1.97;;
19291;SDS011;9779;51.756;7.450;2023-08-07T09:58:34;5.63;;;2.23;;
19291;SDS011;9779;51.756;7.450;2023-08-07T10:01:03;17.53;;;2.60;;
19291;SDS011;9779;51.756;7.450;2023-08-07T10:03:29;3.70;;;2.40;;
19291;SDS011;9779;51.756;7.450;2023-08-07T10:05:58;5.87;;;2.10;;
19291;SDS011;9779;51.756;7.450;2023-08-07T10:08:24;6.80;;;2.47;;
19291;SDS011;9779;51.756;7.450;2023-08-07T10:10:50;8.33;;;2.90;;
19291;SDS011;9779;51.756;7.450;2023-08-07T10:13:16;4.13;;;2.13;;
19291;SDS011;9779;51.756;7.450;2023-08-07T10:15:42;8.10;;;2.60;;
19291;SDS011;9779;51.756;7.450;2023-08-07T10:18:08;4.63;;;2.23;;
19291;SDS011;9779;51.756;7.450;2023-08-07T10:20:34;5.20;;;2.10;;
19291;SDS011;9779;51.756;7.450;2023-08-07T10:23:08;4.70;;;2.20;;
19291;SDS011;9779;51.756;7.450;2023-08-07T10:25:36;5.27;;;2.03;;
19291;SDS011;9779;51.756;7.450;2023-08-07T10:28:05;2.90;;;1.93;;
19291;SDS011;9779;51.756;7.450;2023-08-07T10:30:35;6.97;;;2.20;;
19291;SDS011;9779;51.756;7.450;2023-08-07T10:33:04;6.60;;;2.23;;
19291;SDS011;9779;51.756;7.450;2023-08-07T10:35:31;4.50;;;2.13;;
19291;SDS011;9779;51.756;7.450;2023-08-07T10:38:09;9.67;;;1.60;;
19291;SDS011;9779;51.756;7.450;2023-08-07T10:43:37;6.37;;;2.50;;
19291;SDS011;9779;51.756;7.450;2023-08-07T10:48:46;3.10;;;2.10;;
19291;SDS011;9779;51.756;7.450;2023-08-07T10:51:17;8.37;;;1.77;;
19291;SDS011;9779;51.756;7.450;2023-08-07T10:56:31;5.33;;;1.60;;
19291;SDS011;9779;51.756;7.450;2023-08-07T10:59:07;3.80;;;1.67;;
19291;SDS011;9779;51.756;7.450;2023-08-07T11:04:10;8.40;;;2.00;;
19291;SDS011;9779;51.756;7.450;2023-08-07T11:06:38;6.27;;;1.53;;
19291;SDS011;9779;51.756;7.450;2023-08-07T11:09:05;9.47;;;1.80;;
19291;SDS011;9779;51.756;7.450;2023-08-07T11:11:40;10.40;;;1.90;;
19291;SDS011;9779;51.756;7.450;2023-08-07T11:14:11;8.57;;;2.27;;
19291;SDS011;9779;51.756;7.450;2023-08-07T11:16:38;7.63;;;1.50;;
19291;SDS011;9779;51.756;7.450;2023-08-07T11:19:05;3.93;;;1.77;;
19291;SDS011;9779;51.756;7.450;2023-08-07T11:21:31;7.67;;;1.90;;
19291;SDS011;9779;51.756;7.450;2023-08-07T11:23:57;4.67;;;1.60;;
19291;SDS011;9779;51.756;7.450;2023-08-07T11:26:23;7.20;;;1.60;;
19291;SDS011;9779;51.756;7.450;2023-08-07T11:28:51;8.40;;;1.80;;
19291;SDS011;9779;51.756;7.450;2023-08-07T11:31:19;3.50;;;1.33;;
19291;SDS011;9779;51.756;7.450;2023-08-07T11:33:46;5.03;;;1.40;;
19291;SDS011;9779;51.756;7.450;2023-08-07T11:36:15;3.20;;;1.60;;
19291;SDS011;9779;51.756;7.450;2023-08-07T11:38:41;4.00;;;1.60;;
19291;SDS011;9779;51.756;7.450;2023-08-07T11:41:08;2.67;;;1.60;;
19291;SDS011;9779;51.756;7.450;2023-08-07T11:43:35;6.57;;;1.80;;
19291;SDS011;9779;51.756;7.450;2023-08-07T11:46:03;4.57;;;1.80;;
19291;SDS011;9779;51.756;7.450;2023-08-07T11:48:31;3.07;;;1.30;;
19291;SDS011;9779;51.756;7.450;2023-08-07T11:50:58;2.63;;;1.50;;
19291;SDS011;9779;51.756;7.450;2023-08-07T11:53:36;7.77;;;1.63;;
19291;SDS011;9779;51.756;7.450;2023-08-07T11:56:06;2.93;;;1.60;;
19291;SDS011;9779;51.756;7.450;2023-08-07T11:58:37;3.20;;;1.17;;
19291;SDS011;9779;51.756;7.450;2023-08-07T12:01:05;3.77;;;1.50;;
19291;SDS011;9779;51.756;7.450;2023-08-07T12:03:32;3.93;;;1.50;;
19291;SDS011;9779;51.756;7.450;2023-08-07T12:06:03;2.37;;;1.67;;
19291;SDS011;9779;51.756;7.450;2023-08-07T12:11:00;7.23;;;1.10;;
19291;SDS011;9779;51.756;7.450;2023-08-07T12:13:28;3.87;;;1.23;;
19291;SDS011;9779;51.756;7.450;2023-08-07T12:15:55;2.43;;;1.23;;
19291;SDS011;9779;51.756;7.450;2023-08-07T12:18:22;5.20;;;1.33;;
19291;SDS011;9779;51.756;7.450;2023-08-07T12:20:51;3.43;;;1.33;;
19291;SDS011;9779;51.756;7.450;2023-08-07T12:23:17;1.10;;;0.77;;
19291;SDS011;9779;51.756;7.450;2023-08-07T12:25:46;4.17;;;1.30;;
19291;SDS011;9779;51.756;7.450;2023-08-07T12:28:11;4.90;;;1.20;;
19291;SDS011;9779;51.756;7.450;2023-08-07T12:30:37;2.67;;;1.07;;
19291;SDS011;9779;51.756;7.450;2023-08-07T12:33:03;3.50;;;0.87;;
19291;SDS011;9779;51.756;7.450;2023-08-07T12:35:30;6.50;;;1.10;;
19291;SDS011;9779;51.756;7.450;2023-08-07T12:37:56;5.20;;;1.13;;
19291;SDS011;9779;51.756;7.450;2023-08-07T12:40:22;2.67;;;1.03;;
19291;SDS011;9779;51.756;7.450;2023-08-07T12:42:48;3.90;;;1.17;;
19291;SDS011;9779;51.756;7.450;2023-08-07T12:45:15;3.37;;;1.40;;
19291;SDS011;9779;51.756;7.450;2023-08-07T12:47:41;7.87;;;1.33;;
19291;SDS011;9779;51.756;7.450;2023-08-07T12:50:10;3.20;;;1.33;;
19291;SDS011;9779;51.756;7.450;2023-08-07T12:52:36;4.00;;;1.20;;
19291;SDS011;9779;51.756;7.450;2023-08-07T12:55:02;4.23;;;1.43;;
19291;SDS011;9779;51.756;7.450;2023-08-07T12:57:28;2.97;;;1.50;;
19291;SDS011;9779;51.756;7.450;2023-08-07T12:59:54;3.43;;;1.17;;
19291;SDS011;9779;51.756;7.450;2023-08-07T13:02:19;7.53;;;1.53;;
19291;SDS011;9779;51.756;7.450;2023-08-07T13:04:45;4.67;;;1.40;;
19291;SDS011;9779;51.756;7.450;2023-08-07T13:07:11;1.30;;;1.20;;
19291;SDS011;9779;51.756;7.450;2023-08-07T13:09:37;2.90;;;1.37;;
19291;SDS011;9779;51.756;7.450;2023-08-07T13:12:02;3.23;;;1.40;;
19291;SDS011;9779;51.756;7.450;2023-08-07T13:14:29;2.53;;;1.10;;
19291;SDS011;9779;51.756;7.450;2023-08-07T13:16:54;4.47;;;1.73;;
19291;SDS011;9779;51.756;7.450;2023-08-07T13:19:20;1.93;;;1.10;;
19291;SDS011;9779;51.756;7.450;2023-08-07T13:21:45;2.63;;;1.40;;
19291;SDS011;9779;51.756;7.450;2023-08-07T13:24:11;3.33;;;1.20;;
19291;SDS011;9779;51.756;7.450;2023-08-07T13:26:37;2.63;;;1.20;;
19291;SDS011;9779;51.756;7.450;2023-08-07T13:29:09;2.07;;;1.07;;
19291;SDS011;9779;51.756;7.450;2023-08-07T13:31:38;3.43;;;1.40;;
19291;SDS011;9779;51.756;7.450;2023-08-07T13:34:06;5.07;;;1.37;;
19291;SDS011;9779;51.756;7.450;2023-08-07T13:36:35;3.63;;;1.33;;
19291;SDS011;9779;51.756;7.450;2023-08-07T13:39:02;2.07;;;1.30;;
19291;SDS011;9779;51.756;7.450;2023-08-07T13:41:28;4.87;;;1.67;;
19291;SDS011;9779;51.756;7.450;2023-08-07T13:43:54;7.20;;;1.40;;
19291;SDS011;9779;51.756;7.450;2023-08-07T13:46:20;2.80;;;1.40;;
19291;SDS011;9779;51.756;7.450;2023-08-07T13:48:46;2.93;;;1.30;;
19291;SDS011;9779;51.756;7.450;2023-08-07T13:51:11;10.07;;;1.80;;
19291;SDS011;9779;51.756;7.450;2023-08-07T13:53:37;2.70;;;1.43;;
19291;SDS011;9779;51.756;7.450;2023-08-07T13:56:02;3.37;;;1.20;;
19291;SDS011;9779;51.756;7.450;2023-08-07T13:58:28;3.77;;;1.53;;
19291;SDS011;9779;51.756;7.450;2023-08-07T14:00:55;3.43;;;1.40;;
19291;SDS011;9779;51.756;7.450;2023-08-07T14:03:21;9.47;;;2.10;;
19291;SDS011;9779;51.756;7.450;2023-08-07T14:05:47;3.27;;;1.73;;
19291;SDS011;9779;51.756;7.450;2023-08-07T14:08:13;2.10;;;1.50;;
19291;SDS011;9779;51.756;7.450;2023-08-07T14:10:39;2.03;;;1.70;;
19291;SDS011;9779;51.756;7.450;2023-08-07T14:13:06;4.13;;;1.80;;
19291;SDS011;9779;51.756;7.450;2023-08-07T14:15:31;5.90;;;2.30;;
19291;SDS011;9779;51.756;7.450;2023-08-07T14:17:57;2.70;;;1.20;;
19291;SDS011;9779;51.756;7.450;2023-08-07T14:20:23;3.90;;;1.57;;
19291;SDS011;9779;51.756;7.450;2023-08-07T14:22:51;3.67;;;1.60;;
19291;SDS011;9779;51.756;7.450;2023-08-07T14:25:17;13.40;;;2.17;;
19291;SDS011;9779;51.756;7.450;2023-08-07T14:27:47;3.23;;;1.50;;
19291;SDS011;9779;51.756;7.450;2023-08-07T14:30:14;1.97;;;1.53;;
19291;SDS011;9779;51.756;7.450;2023-08-07T14:32:40;6.50;;;1.63;;
19291;SDS011;9779;51.756;7.450;2023-08-07T14:35:07;8.37;;;1.67;;
19291;SDS011;9779;51.756;7.450;2023-08-07T14:37:33;2.97;;;1.60;;
19291;SDS011;9779;51.756;7.450;2023-08-07T14:39:59;1.47;;;1.10;;
19291;SDS011;9779;51.756;7.450;2023-08-07T14:42:26;4.17;;;1.63;;
19291;SDS011;9779;51.756;7.450;2023-08-07T14:44:52;1.93;;;1.30;;
19291;SDS011;9779;51.756;7.450;2023-08-07T14:47:18;3.80;;;1.53;;
19291;SDS011;9779;51.756;7.450;2023-08-07T14:49:43;3.83;;;2.27;;
19291;SDS011;9779;51.756;7.450;2023-08-07T14:52:09;3.73;;;1.73;;
19291;SDS011;9779;51.756;7.450;2023-08-07T14:54:34;2.77;;;1.50;;
19291;SDS011;9779;51.756;7.450;2023-08-07T14:57:00;4.30;;;1.20;;
19291;SDS011;9779;51.756;7.450;2023-08-07T14:59:26;5.30;;;1.40;;
19291;SDS011;9779;51.756;7.450;2023-08-07T15:01:51;2.47;;;1.37;;
19291;SDS011;9779;51.756;7.450;2023-08-07T15:04:17;6.13;;;1.40;;
19291;SDS011;9779;51.756;7.450;2023-08-07T15:06:43;2.33;;;1.40;;
19291;SDS011;9779;51.756;7.450;2023-08-07T15:09:11;4.57;;;1.73;;
19291;SDS011;9779;51.756;7.450;2023-08-07T15:11:37;4.20;;;1.80;;
19291;SDS011;9779;51.756;7.450;2023-08-07T15:14:03;2.57;;;1.17;;